createdAt,value
2022-10-18T00:01:09.332Z,12.07
2022-10-18T00:03:38.438Z,20.52
2022-10-18T00:06:09.279Z,16.48
2022-10-18T00:08:39.629Z,16.60
2022-10-18T00:11:08.369Z,26.83
2022-10-18T00:13:36.749Z,16.00
2022-10-18T00:16:11.849Z,12.45
2022-10-18T00:18:41.411Z,15.00
2022-10-18T00:21:14.011Z,12.45
2022-10-18T00:23:42.413Z,14.90
2022-10-18T00:26:36.495Z,23.23
2022-10-18T00:29:07.135Z,27.77
2022-10-18T00:31:38.060Z,30.95
2022-10-18T00:34:13.163Z,18.42
2022-10-18T00:36:41.341Z,20.02
2022-10-18T00:39:15.660Z,23.35
2022-10-18T00:41:44.097Z,17.65
2022-10-18T00:44:11.684Z,22.73
2022-10-18T00:46:45.946Z,16.33
2022-10-18T00:49:20.566Z,22.45
2022-10-18T00:51:59.147Z,21.58
2022-10-18T00:54:31.283Z,16.98
2022-10-18T00:56:59.697Z,15.35
2022-10-18T00:59:28.132Z,18.13
2022-10-18T01:01:56.000Z,16.75
2022-10-18T01:04:23.973Z,14.38
2022-10-18T01:07:19.195Z,15.38
2022-10-18T01:10:17.275Z,24.55
2022-10-18T01:13:06.131Z,18.70
2022-10-18T01:16:02.948Z,46.80
2022-10-18T01:19:09.530Z,13.80
2022-10-18T01:21:54.721Z,16.73
2022-10-18T01:24:45.752Z,14.00
2022-10-18T01:28:14.960Z,63.63
2022-10-18T01:30:54.458Z,32.58
2022-10-18T01:33:28.425Z,31.30
2022-10-18T01:36:08.387Z,17.85
2022-10-18T01:38:39.745Z,61.05
2022-10-18T01:41:14.732Z,18.35
2022-10-18T01:43:48.775Z,14.35
2022-10-18T01:46:23.179Z,13.75
2022-10-18T01:48:53.615Z,16.25
2022-10-18T01:51:31.101Z,13.15
2022-10-18T01:56:57.435Z,9.55
2022-10-18T01:59:47.728Z,14.40
2022-10-18T02:02:43.198Z,11.63
2022-10-18T02:05:19.702Z,8.10
2022-10-18T02:08:23.193Z,9.38
2022-10-18T02:14:07.123Z,11.45
2022-10-18T02:16:51.820Z,13.80
2022-10-18T02:19:36.509Z,16.17
2022-10-18T02:22:07.197Z,21.30
2022-10-18T02:24:44.857Z,16.63
2022-10-18T02:27:13.139Z,12.73
2022-10-18T02:29:42.972Z,9.90
2022-10-18T02:32:38.516Z,10.70
2022-10-18T02:35:14.189Z,8.20
2022-10-18T02:37:43.374Z,8.60
2022-10-18T02:40:11.683Z,8.95
2022-10-18T02:42:49.285Z,11.93
2022-10-18T02:45:17.714Z,15.20
2022-10-18T02:47:45.781Z,11.52
2022-10-18T02:50:14.290Z,8.25
2022-10-18T02:52:41.911Z,8.50
2022-10-18T02:55:10.438Z,11.43
2022-10-18T02:57:38.408Z,12.80
2022-10-18T03:00:08.155Z,13.32
2022-10-18T03:02:36.025Z,11.15
2022-10-18T03:05:04.384Z,11.52
2022-10-18T03:07:32.277Z,10.45
2022-10-18T03:10:00.129Z,8.85
2022-10-18T03:12:27.806Z,8.55
2022-10-18T03:14:55.447Z,9.57
2022-10-18T03:17:23.257Z,11.13
2022-10-18T03:19:51.042Z,13.45
2022-10-18T03:22:18.800Z,7.75
2022-10-18T03:24:46.599Z,10.23
2022-10-18T03:27:14.309Z,11.77
2022-10-18T03:29:41.985Z,8.75
2022-10-18T03:32:09.909Z,9.35
2022-10-18T03:34:37.628Z,10.15
2022-10-18T03:37:05.590Z,8.65
2022-10-18T03:39:33.413Z,8.02
2022-10-18T03:42:01.151Z,8.80
2022-10-18T03:44:28.789Z,9.75
2022-10-18T03:46:56.534Z,11.05
2022-10-18T03:49:24.310Z,9.45
2022-10-18T03:51:52.101Z,10.82
2022-10-18T03:54:19.891Z,14.65
2022-10-18T03:56:47.594Z,11.57
2022-10-18T03:59:17.099Z,17.02
2022-10-18T04:01:44.866Z,12.75
2022-10-18T04:04:12.565Z,14.73
2022-10-18T04:06:41.320Z,16.35
2022-10-18T04:09:10.281Z,12.63
2022-10-18T04:11:38.280Z,10.40
2022-10-18T04:14:06.331Z,9.40
2022-10-18T04:16:34.150Z,8.32
2022-10-18T04:19:01.919Z,8.85
2022-10-18T04:21:29.635Z,7.45
2022-10-18T04:23:57.328Z,9.65
2022-10-18T04:26:25.138Z,9.43
2022-10-18T04:28:52.862Z,13.65
2022-10-18T04:31:20.593Z,9.75
2022-10-18T04:33:48.328Z,7.55
2022-10-18T04:36:16.010Z,12.48
2022-10-18T04:38:43.688Z,16.35
2022-10-18T04:41:11.366Z,9.38
2022-10-18T04:43:39.094Z,23.05
2022-10-18T04:46:06.874Z,76.75
2022-10-18T04:48:34.589Z,30.70
2022-10-18T04:51:02.254Z,13.90
2022-10-18T04:53:30.022Z,49.38
2022-10-18T04:55:57.757Z,38.67
2022-10-18T04:58:25.642Z,23.58
2022-10-18T05:00:54.238Z,9.38
2022-10-18T05:03:21.942Z,8.85
2022-10-18T05:06:01.387Z,9.35
2022-10-18T05:08:34.817Z,13.38
2022-10-18T05:11:03.945Z,9.25
2022-10-18T05:13:31.872Z,12.60
2022-10-18T05:16:00.467Z,10.00
2022-10-18T05:18:28.536Z,13.68
2022-10-18T05:20:57.494Z,12.73
2022-10-18T05:23:25.350Z,22.40
2022-10-18T05:25:54.723Z,11.85
2022-10-18T05:28:41.008Z,11.95
2022-10-18T05:31:11.730Z,13.60
2022-10-18T05:33:39.593Z,20.27
2022-10-18T05:36:07.857Z,63.10
2022-10-18T05:38:42.163Z,25.00
2022-10-18T05:41:11.340Z,27.50
2022-10-18T05:43:40.760Z,48.10
2022-10-18T05:46:13.728Z,70.00
2022-10-18T05:48:44.759Z,84.38
2022-10-18T05:51:12.529Z,61.88
2022-10-18T05:53:40.321Z,32.35
2022-10-18T05:56:08.509Z,28.33
2022-10-18T05:58:36.640Z,16.25
2022-10-18T06:01:06.247Z,16.42
2022-10-18T06:03:34.825Z,18.58
2022-10-18T06:06:09.065Z,25.60
2022-10-18T06:08:38.922Z,42.70
2022-10-18T06:11:16.396Z,64.97
2022-10-18T06:13:47.299Z,59.95
2022-10-18T06:18:55.401Z,37.10
2022-10-18T06:21:25.011Z,54.50
2022-10-18T06:23:55.945Z,38.85
2022-10-18T06:26:24.473Z,49.22
2022-10-18T06:28:52.214Z,42.83
2022-10-18T06:31:21.335Z,34.28
2022-10-18T06:33:49.392Z,34.38
2022-10-18T06:36:22.326Z,42.33
2022-10-18T06:38:50.896Z,39.55
2022-10-18T06:41:22.132Z,26.27
2022-10-18T06:43:51.923Z,30.80
2022-10-18T06:46:20.311Z,23.15
2022-10-18T06:48:48.089Z,87.55
2022-10-18T06:51:15.885Z,38.20
2022-10-18T06:53:44.510Z,25.25
2022-10-18T06:56:21.285Z,58.10
2022-10-18T06:58:49.305Z,70.22
2022-10-18T07:01:18.787Z,83.68
2022-10-18T07:03:48.837Z,68.43
2022-10-18T07:06:18.691Z,34.65
2022-10-18T07:08:49.416Z,117.20
2022-10-18T07:11:26.269Z,66.38
2022-10-18T07:14:02.311Z,42.35
2022-10-18T07:16:32.017Z,37.63
2022-10-18T07:18:59.895Z,60.25
2022-10-18T07:21:28.110Z,66.05
2022-10-18T07:23:57.151Z,42.38
2022-10-18T07:26:29.279Z,19.08
2022-10-18T07:29:09.675Z,22.95
2022-10-18T07:31:41.360Z,24.50
2022-10-18T07:34:13.308Z,62.40
2022-10-18T07:36:41.693Z,30.02
2022-10-18T07:39:10.269Z,21.23
2022-10-18T07:41:38.227Z,22.23
2022-10-18T07:44:06.180Z,26.92
2022-10-18T07:46:33.957Z,27.63
2022-10-18T07:49:01.881Z,22.55
2022-10-18T07:51:32.771Z,20.58
2022-10-18T07:54:00.534Z,17.40
2022-10-18T07:56:28.484Z,15.77
2022-10-18T07:58:57.014Z,16.33
2022-10-18T08:01:25.576Z,14.93
2022-10-18T08:03:53.787Z,16.08
2022-10-18T08:06:23.813Z,12.60
2022-10-18T08:08:52.312Z,14.40
2022-10-18T08:11:24.228Z,21.75
2022-10-18T08:13:53.956Z,12.25
2022-10-18T08:16:28.467Z,21.20
2022-10-18T08:18:58.948Z,16.13
2022-10-18T08:21:27.338Z,12.95
2022-10-18T08:23:55.328Z,11.93
2022-10-18T08:26:23.983Z,14.65
2022-10-18T08:28:58.373Z,15.68
2022-10-18T08:31:31.707Z,23.65
2022-10-18T08:34:00.145Z,16.25
2022-10-18T08:36:27.934Z,12.38
2022-10-18T08:38:55.711Z,16.13
2022-10-18T08:41:48.063Z,11.63
2022-10-18T08:44:21.196Z,10.93
2022-10-18T08:46:55.311Z,15.88
2022-10-18T08:49:50.542Z,13.95
2022-10-18T08:52:57.821Z,14.10
2022-10-18T08:55:36.523Z,10.85
2022-10-18T08:58:33.428Z,8.85
2022-10-18T09:01:32.066Z,10.80
2022-10-18T09:04:42.311Z,11.38
2022-10-18T09:07:43.927Z,11.07
2022-10-18T09:10:53.134Z,11.63
2022-10-18T09:13:51.338Z,14.02
2022-10-18T09:16:58.613Z,10.23
2022-10-18T09:19:47.817Z,11.50
2022-10-18T09:22:20.002Z,13.05
2022-10-18T09:25:11.639Z,15.82
2022-10-18T09:27:53.910Z,11.18
2022-10-18T09:30:45.531Z,10.68
2022-10-18T09:33:28.162Z,9.70
2022-10-18T09:36:06.631Z,14.35
2022-10-18T09:38:49.949Z,12.40
2022-10-18T09:41:52.601Z,11.27
2022-10-18T09:47:08.192Z,10.15
2022-10-18T09:49:51.168Z,8.25
2022-10-18T09:52:32.178Z,9.10
2022-10-18T09:55:05.446Z,8.77
2022-10-18T09:57:45.083Z,9.10
2022-10-18T10:00:23.048Z,8.23
2022-10-18T10:02:50.830Z,8.35
2022-10-18T10:05:19.948Z,14.82
2022-10-18T10:07:49.223Z,9.65
2022-10-18T10:10:29.736Z,10.05
2022-10-18T10:13:23.165Z,6.57
2022-10-18T10:16:02.403Z,19.58
2022-10-18T10:18:34.746Z,9.73
2022-10-18T10:21:07.282Z,8.27
2022-10-18T10:23:45.026Z,6.68
2022-10-18T10:26:34.295Z,9.48
2022-10-18T10:29:02.370Z,8.43
2022-10-18T10:31:32.223Z,8.02
2022-10-18T10:34:14.942Z,8.05
2022-10-18T10:36:54.796Z,6.90
2022-10-18T10:39:24.710Z,7.68
2022-10-18T10:42:00.345Z,7.57
2022-10-18T10:44:36.024Z,6.40
2022-10-18T10:47:04.844Z,8.57
2022-10-18T10:49:40.280Z,7.28
2022-10-18T10:52:27.254Z,12.05
2022-10-18T10:57:49.923Z,12.07
2022-10-18T11:00:44.574Z,12.73
2022-10-18T11:03:28.689Z,6.18
2022-10-18T11:06:00.900Z,35.33
2022-10-18T11:08:42.161Z,11.77
2022-10-18T11:11:23.323Z,7.32
2022-10-18T11:14:26.116Z,8.55
2022-10-18T11:17:21.453Z,5.68
2022-10-18T11:20:36.490Z,8.18
2022-10-18T11:23:11.997Z,7.13
2022-10-18T11:25:50.338Z,7.90
2022-10-18T11:29:02.771Z,6.80
2022-10-18T11:31:48.947Z,8.02
2022-10-18T11:35:12.705Z,8.23
2022-10-18T11:37:56.407Z,24.73
2022-10-18T11:40:42.319Z,15.85
2022-10-18T11:43:18.995Z,9.98
2022-10-18T11:46:11.809Z,6.72
2022-10-18T11:48:56.076Z,6.40
2022-10-18T11:52:14.364Z,20.52
2022-10-18T11:54:49.578Z,12.82
2022-10-18T11:57:20.193Z,9.98
2022-10-18T12:00:16.689Z,10.82
2022-10-18T12:03:18.587Z,8.60
2022-10-18T12:05:50.192Z,10.02
2022-10-18T12:08:49.469Z,10.52
2022-10-18T12:11:24.774Z,9.88
2022-10-18T12:13:59.379Z,8.40
2022-10-18T12:16:50.550Z,11.65
2022-10-18T12:19:33.047Z,8.13
2022-10-18T12:22:24.398Z,10.32
2022-10-18T12:24:52.499Z,8.68
2022-10-18T12:27:42.871Z,11.07
2022-10-18T12:30:27.398Z,9.88
2022-10-18T12:33:27.176Z,11.30
2022-10-18T12:36:08.773Z,11.93
2022-10-18T12:38:45.759Z,13.35
2022-10-18T12:41:28.851Z,9.52
2022-10-18T12:47:04.448Z,12.88
2022-10-18T12:49:41.472Z,9.85
2022-10-18T12:52:24.831Z,9.95
2022-10-18T12:55:05.833Z,9.52
2022-10-18T12:57:52.096Z,8.50
2022-10-18T13:00:31.702Z,25.00
2022-10-18T13:03:16.655Z,17.08
2022-10-18T13:05:54.901Z,11.63
2022-10-18T13:08:33.292Z,12.57
2022-10-18T13:11:10.070Z,11.73
2022-10-18T13:14:16.512Z,10.60
2022-10-18T13:17:12.521Z,9.25
2022-10-18T13:23:31.697Z,12.75
2022-10-18T13:26:16.219Z,10.65
2022-10-18T13:28:59.186Z,11.05
2022-10-18T13:34:40.310Z,12.20
2022-10-18T13:37:10.719Z,11.18
2022-10-18T13:39:40.104Z,15.82
2022-10-18T13:42:27.926Z,10.75
2022-10-18T13:45:33.511Z,8.15
2022-10-18T13:48:32.068Z,8.90
2022-10-18T13:51:46.971Z,9.57
2022-10-18T13:54:34.921Z,9.10
2022-10-18T13:57:43.334Z,8.45
2022-10-18T14:00:33.837Z,9.40
2022-10-18T14:03:57.076Z,8.05
2022-10-18T14:06:35.370Z,8.65
2022-10-18T14:09:40.201Z,8.32
2022-10-18T14:12:29.195Z,10.05
2022-10-18T14:15:07.854Z,9.15
2022-10-18T14:17:52.895Z,10.52
2022-10-18T14:20:55.359Z,8.70
2022-10-18T14:23:44.876Z,10.85
2022-10-18T14:26:19.739Z,11.27
2022-10-18T14:29:07.497Z,10.93
2022-10-18T14:31:35.714Z,9.50
2022-10-18T14:34:03.731Z,13.30
2022-10-18T14:36:41.092Z,9.18
2022-10-18T14:39:24.438Z,13.38
2022-10-18T14:41:57.351Z,10.68
2022-10-18T14:44:31.487Z,13.75
2022-10-18T14:47:14.924Z,11.88
2022-10-18T14:49:47.459Z,8.90
2022-10-18T14:52:26.149Z,11.13
2022-10-18T14:54:58.961Z,30.17
2022-10-18T14:57:36.992Z,27.75
2022-10-18T15:00:14.382Z,20.75
2022-10-18T15:02:42.287Z,25.25
2022-10-18T15:05:21.211Z,13.82
2022-10-18T15:07:51.854Z,13.85
2022-10-18T15:10:26.184Z,39.42
2022-10-18T15:13:16.196Z,57.97
2022-10-18T15:15:45.288Z,39.83
2022-10-18T15:18:33.733Z,21.77
2022-10-18T15:21:10.823Z,16.05
2022-10-18T15:23:38.700Z,10.00
2022-10-18T15:26:12.728Z,10.98
2022-10-18T15:28:51.450Z,11.93
2022-10-18T15:31:28.196Z,13.35
2022-10-18T15:34:23.671Z,10.90
2022-10-18T15:36:55.269Z,10.50
2022-10-18T15:39:33.419Z,11.57
2022-10-18T15:42:03.205Z,12.35
2022-10-18T15:44:45.969Z,16.50
2022-10-18T15:47:13.830Z,45.50
2022-10-18T15:49:44.165Z,48.90
2022-10-18T15:52:43.281Z,31.85
2022-10-18T15:55:32.958Z,48.05
2022-10-18T15:58:27.277Z,32.47
2022-10-18T16:01:00.733Z,27.92
2022-10-18T16:03:29.067Z,37.85
2022-10-18T16:06:04.996Z,30.65
2022-10-18T16:08:40.756Z,33.00
2022-10-18T16:11:15.943Z,34.97
2022-10-18T16:13:44.759Z,20.58
2022-10-18T16:16:26.534Z,27.17
2022-10-18T16:18:55.767Z,39.22
2022-10-18T16:21:33.922Z,53.42
2022-10-18T16:24:02.131Z,24.48
2022-10-18T16:26:30.598Z,21.33
2022-10-18T16:28:59.366Z,66.85
2022-10-18T16:31:32.544Z,72.63
2022-10-18T16:34:02.007Z,36.97
2022-10-18T16:36:33.389Z,32.67
2022-10-18T16:39:08.171Z,23.40
2022-10-18T16:41:35.995Z,24.58
2022-10-18T16:44:04.069Z,31.95
2022-10-18T16:46:35.105Z,42.90
2022-10-18T16:49:04.203Z,41.85
2022-10-18T16:51:32.158Z,63.53
2022-10-18T16:54:00.019Z,45.50
2022-10-18T16:56:31.721Z,41.22
2022-10-18T16:59:00.600Z,118.65
2022-10-18T17:01:28.711Z,222.65
2022-10-18T17:03:56.608Z,71.78
2022-10-18T17:06:30.904Z,53.25
2022-10-18T17:08:59.386Z,61.35
2022-10-18T17:11:28.551Z,52.03
2022-10-18T17:13:56.483Z,43.42
2022-10-18T17:16:34.841Z,36.33
2022-10-18T17:19:06.142Z,28.23
2022-10-18T17:21:34.381Z,27.55
2022-10-18T17:24:03.371Z,32.20
2022-10-18T17:26:31.593Z,39.67
2022-10-18T17:29:04.356Z,32.75
2022-10-18T17:31:32.977Z,47.20
2022-10-18T17:34:02.026Z,42.28
2022-10-18T17:36:32.427Z,46.90
2022-10-18T17:39:00.608Z,54.97
2022-10-18T17:41:28.618Z,43.45
2022-10-18T17:43:56.777Z,46.70
2022-10-18T17:46:24.837Z,57.35
2022-10-18T17:48:54.079Z,46.50
2022-10-18T17:51:22.471Z,48.50
2022-10-18T17:53:50.429Z,45.53
2022-10-18T17:56:18.239Z,38.95
2022-10-18T17:58:49.839Z,30.92
2022-10-18T18:01:23.259Z,31.73
2022-10-18T18:04:03.432Z,68.68
2022-10-18T18:06:34.961Z,166.88
2022-10-18T18:09:14.684Z,67.57
2022-10-18T18:11:45.592Z,52.25
2022-10-18T18:14:14.349Z,74.20
2022-10-18T18:16:46.532Z,71.03
2022-10-18T18:19:15.682Z,64.57
2022-10-18T18:21:43.597Z,49.13
2022-10-18T18:24:14.131Z,36.15
2022-10-18T18:29:13.021Z,34.88
2022-10-18T18:31:43.770Z,26.98
2022-10-18T18:34:12.093Z,26.55
2022-10-18T18:36:40.174Z,23.80
2022-10-18T18:39:09.191Z,27.65
2022-10-18T18:41:38.471Z,55.97
2022-10-18T18:44:06.845Z,47.28
2022-10-18T18:46:38.587Z,29.13
2022-10-18T18:49:08.206Z,27.92
2022-10-18T18:51:40.428Z,30.65
2022-10-18T18:54:10.997Z,19.73
2022-10-18T18:59:07.033Z,19.45
2022-10-18T19:01:38.588Z,20.48
2022-10-18T19:04:09.953Z,20.00
2022-10-18T19:06:45.311Z,25.30
2022-10-18T19:09:22.209Z,23.33
2022-10-18T19:11:53.774Z,28.25
2022-10-18T19:14:24.986Z,34.97
2022-10-18T19:16:59.115Z,29.08
2022-10-18T19:19:29.937Z,22.58
2022-10-18T19:22:01.076Z,24.92
2022-10-18T19:24:30.787Z,30.40
2022-10-18T19:27:12.508Z,36.70
2022-10-18T19:29:41.267Z,21.63
2022-10-18T19:32:15.022Z,20.20
2022-10-18T19:34:46.000Z,28.17
2022-10-18T19:37:15.638Z,31.52
2022-10-18T19:39:43.363Z,32.40
2022-10-18T19:42:17.433Z,33.35
2022-10-18T19:47:16.194Z,23.50
2022-10-18T19:49:44.278Z,35.33
2022-10-18T19:52:12.605Z,50.97
2022-10-18T19:54:40.345Z,66.72
2022-10-18T19:57:08.152Z,58.83
2022-10-18T19:59:36.217Z,41.22
2022-10-18T20:02:04.875Z,40.20
2022-10-18T20:04:34.993Z,26.65
2022-10-18T20:07:03.215Z,30.58
2022-10-18T20:09:31.087Z,27.23
2022-10-18T20:11:59.030Z,37.38
2022-10-18T20:14:26.727Z,33.00
2022-10-18T20:16:54.491Z,31.52
2022-10-18T20:19:22.394Z,88.30
2022-10-18T20:21:50.256Z,91.47
2022-10-18T20:24:18.089Z,57.95
2022-10-18T20:26:45.852Z,26.63
2022-10-18T20:29:13.786Z,20.45
2022-10-18T20:31:41.769Z,21.63
2022-10-18T20:34:12.200Z,18.63
2022-10-18T20:36:40.463Z,19.98
2022-10-18T20:39:09.052Z,19.95
2022-10-18T20:41:41.479Z,19.77
2022-10-18T20:44:17.712Z,17.92
2022-10-18T20:46:46.068Z,18.67
2022-10-18T20:49:16.590Z,20.05
2022-10-18T20:51:44.756Z,13.77
2022-10-18T20:54:13.169Z,17.00
2022-10-18T20:56:41.375Z,16.83
2022-10-18T20:59:10.230Z,15.80
2022-10-18T21:01:39.610Z,23.13
2022-10-18T21:04:10.044Z,15.93
2022-10-18T21:06:43.412Z,17.08
2022-10-18T21:09:18.226Z,17.90
2022-10-18T21:11:51.430Z,22.10
2022-10-18T21:14:21.835Z,37.20
2022-10-18T21:16:52.031Z,52.92
2022-10-18T21:19:26.011Z,41.33
2022-10-18T21:21:57.379Z,28.33
2022-10-18T21:24:26.977Z,20.05
2022-10-18T21:26:54.938Z,17.52
2022-10-18T21:29:24.899Z,16.40
2022-10-18T21:31:59.493Z,21.73
2022-10-18T21:34:27.262Z,20.95
2022-10-18T21:36:54.953Z,26.20
2022-10-18T21:41:57.458Z,15.57
2022-10-18T21:44:25.188Z,19.40
2022-10-18T21:46:53.097Z,24.35
2022-10-18T21:49:23.450Z,16.67
2022-10-18T21:51:51.144Z,18.02
2022-10-18T21:54:19.091Z,17.63
2022-10-18T21:56:46.831Z,37.97
2022-10-18T21:59:14.872Z,56.60
2022-10-18T22:01:44.236Z,54.97
2022-10-18T22:04:25.246Z,21.20
2022-10-18T22:06:53.165Z,23.65
2022-10-18T22:09:22.149Z,25.65
2022-10-18T22:11:53.277Z,22.15
2022-10-18T22:14:21.930Z,16.13
2022-10-18T22:16:50.279Z,13.18
2022-10-18T22:19:18.059Z,13.18
2022-10-18T22:21:45.832Z,11.88
2022-10-18T22:24:13.612Z,14.27
2022-10-18T22:26:44.674Z,18.90
2022-10-18T22:29:19.950Z,15.57
2022-10-18T22:31:55.286Z,14.98
2022-10-18T22:34:29.733Z,10.98
2022-10-18T22:36:57.858Z,14.77
2022-10-18T22:39:25.822Z,17.63
2022-10-18T22:41:56.533Z,15.48
2022-10-18T22:44:25.614Z,18.67
2022-10-18T22:46:53.507Z,18.77
2022-10-18T22:49:21.208Z,14.70
2022-10-18T22:51:49.017Z,14.30
2022-10-18T22:54:16.766Z,17.42
2022-10-18T22:56:44.509Z,13.13
2022-10-18T22:59:12.269Z,11.43
2022-10-18T23:01:39.917Z,14.88
2022-10-18T23:04:07.634Z,15.38
2022-10-18T23:06:36.935Z,15.95
2022-10-18T23:09:08.135Z,12.80
2022-10-18T23:11:37.269Z,25.20
2022-10-18T23:14:06.686Z,36.25
2022-10-18T23:16:34.963Z,17.50
2022-10-18T23:19:03.151Z,15.40
2022-10-18T23:21:30.826Z,17.33
2022-10-18T23:23:58.480Z,13.80
2022-10-18T23:26:28.158Z,17.55
2022-10-18T23:28:56.625Z,20.02
2022-10-18T23:31:29.239Z,14.93
2022-10-18T23:34:00.770Z,17.63
2022-10-18T23:36:29.130Z,13.50
2022-10-18T23:38:57.536Z,10.57
2022-10-18T23:41:26.053Z,13.43
2022-10-18T23:43:54.824Z,13.77
2022-10-18T23:46:22.716Z,12.73
2022-10-18T23:48:50.870Z,11.98
2022-10-18T23:51:18.684Z,14.27
2022-10-18T23:53:46.606Z,16.13
2022-10-18T23:56:16.880Z,14.40
2022-10-18T23:58:45.998Z,14.52
